createdAt,value
2023-05-10T00:00:00.526Z,400.0000
2023-05-10T00:01:01.531Z,400.0000
2023-05-10T00:02:02.572Z,400.0000
2023-05-10T00:03:03.655Z,400.0000
2023-05-10T00:04:04.666Z,400.0000
2023-05-10T00:05:05.612Z,400.0000
2023-05-10T00:06:06.642Z,400.0000
2023-05-10T00:07:07.692Z,402.1538
2023-05-10T00:08:08.735Z,401.3077
2023-05-10T00:09:09.781Z,400.1538
2023-05-10T00:10:10.757Z,400.0000
2023-05-10T00:11:11.811Z,400.0000
2023-05-10T00:12:12.794Z,403.2308
2023-05-10T00:13:13.960Z,403.8462
2023-05-10T00:14:14.928Z,400.0000
2023-05-10T00:15:15.943Z,400.0000
2023-05-10T00:16:17.028Z,400.0000
2023-05-10T00:17:18.016Z,400.0000
2023-05-10T00:18:19.028Z,400.0000
2023-05-10T00:19:20.089Z,400.0000
2023-05-10T00:20:21.051Z,400.0000
2023-05-10T00:21:22.090Z,400.0000
2023-05-10T00:22:23.126Z,402.7692
2023-05-10T00:23:24.195Z,408.0000
2023-05-10T00:24:25.234Z,416.6154
2023-05-10T00:25:26.213Z,420.7692
2023-05-10T00:26:27.233Z,417.2308
2023-05-10T00:27:28.275Z,420.0769
2023-05-10T00:28:29.342Z,424.6154
2023-05-10T00:29:30.408Z,420.4615
2023-05-10T00:30:31.378Z,416.9231
2023-05-10T00:31:32.421Z,426.0769
2023-05-10T00:32:33.453Z,421.6154
2023-05-10T00:33:34.486Z,420.4615
2023-05-10T00:34:35.502Z,426.4615
2023-05-10T00:35:36.529Z,418.6923
2023-05-10T00:36:37.534Z,420.3846
2023-05-10T00:37:38.580Z,413.2308
2023-05-10T00:38:39.648Z,400.0000
2023-05-10T00:39:40.702Z,406.6154
2023-05-10T00:40:41.718Z,417.0000
2023-05-10T00:41:42.737Z,419.7692
2023-05-10T00:42:43.719Z,421.6154
2023-05-10T00:43:44.750Z,425.6923
2023-05-10T00:44:45.815Z,433.3846
2023-05-10T00:45:46.885Z,431.4615
2023-05-10T00:46:47.862Z,432.9231
2023-05-10T00:47:48.911Z,434.3077
2023-05-10T00:48:49.929Z,445.3077
2023-05-10T00:49:50.931Z,442.6154
2023-05-10T00:50:51.987Z,439.2308
2023-05-10T00:51:53.012Z,445.7692
2023-05-10T00:52:54.025Z,449.3077
2023-05-10T00:53:55.033Z,452.6923
2023-05-10T00:54:56.092Z,447.4615
2023-05-10T00:55:57.139Z,448.6923
2023-05-10T00:56:58.213Z,448.1538
2023-05-10T00:57:59.153Z,429.4615
2023-05-10T00:59:00.214Z,425.4615
2023-05-10T01:00:01.235Z,431.0769
2023-05-10T01:01:02.349Z,431.0769
2023-05-10T01:02:03.364Z,420.2308
2023-05-10T01:03:04.394Z,428.2308
2023-05-10T01:04:05.356Z,436.3077
2023-05-10T01:05:06.476Z,441.0769
2023-05-10T01:06:07.454Z,426.0769
2023-05-10T01:07:08.497Z,419.7692
2023-05-10T01:08:09.478Z,408.7692
2023-05-10T01:09:10.518Z,409.1538
2023-05-10T01:10:11.543Z,410.8462
2023-05-10T01:11:12.596Z,411.1538
2023-05-10T01:12:13.688Z,423.4615
2023-05-10T01:13:14.739Z,428.3077
2023-05-10T01:14:15.697Z,436.9231
2023-05-10T01:15:16.712Z,437.3077
2023-05-10T01:16:17.829Z,436.6923
2023-05-10T01:17:18.822Z,436.6923
2023-05-10T01:18:19.781Z,434.3846
2023-05-10T01:19:20.893Z,430.6154
2023-05-10T01:20:21.917Z,432.5385
2023-05-10T01:21:23.026Z,439.1538
2023-05-10T01:22:24.017Z,437.6154
2023-05-10T01:23:25.019Z,434.6154
2023-05-10T01:24:26.062Z,428.3846
2023-05-10T01:25:27.036Z,430.2308
2023-05-10T01:26:28.115Z,437.6154
2023-05-10T01:27:29.136Z,434.9231
2023-05-10T01:28:30.200Z,429.2308
2023-05-10T01:29:31.197Z,433.7692
2023-05-10T01:30:32.250Z,431.5385
2023-05-10T01:31:33.312Z,427.6923
2023-05-10T01:32:34.344Z,424.2308
2023-05-10T01:33:35.297Z,434.2308
2023-05-10T01:34:36.337Z,423.7692
2023-05-10T01:35:37.358Z,425.3846
2023-05-10T01:36:38.465Z,429.7692
2023-05-10T01:37:39.460Z,433.4615
2023-05-10T01:38:40.477Z,427.0000
2023-05-10T01:39:41.476Z,428.4615
2023-05-10T01:40:42.515Z,430.8462
2023-05-10T01:41:43.533Z,439.3077
2023-05-10T01:42:44.622Z,436.6154
2023-05-10T01:43:45.594Z,425.4615
2023-05-10T01:44:46.739Z,423.1538
2023-05-10T01:45:47.736Z,424.4615
2023-05-10T01:46:48.845Z,424.9231
2023-05-10T01:47:49.868Z,426.2308
2023-05-10T01:48:50.852Z,426.3077
2023-05-10T01:49:51.868Z,426.8462
2023-05-10T01:50:52.893Z,423.6154
2023-05-10T01:51:53.968Z,403.1538
2023-05-10T01:52:55.012Z,407.8462
2023-05-10T01:53:55.993Z,421.7692
2023-05-10T01:54:57.010Z,416.0769
2023-05-10T01:55:58.032Z,419.4615
2023-05-10T01:56:59.130Z,406.5385
2023-05-10T01:58:00.178Z,402.5385
2023-05-10T01:59:01.182Z,417.0769
2023-05-10T02:00:02.163Z,412.2308
2023-05-10T02:01:03.211Z,416.7692
2023-05-10T02:02:04.292Z,420.5385
2023-05-10T02:03:05.359Z,419.1538
2023-05-10T02:04:06.425Z,415.3846
2023-05-10T02:05:07.291Z,408.4615
2023-05-10T02:06:08.337Z,401.7692
2023-05-10T02:07:09.405Z,405.4615
2023-05-10T02:08:10.500Z,412.9231
2023-05-10T02:09:11.470Z,407.8462
2023-05-10T02:10:12.475Z,401.7692
2023-05-10T02:11:13.496Z,410.0769
2023-05-10T02:12:14.571Z,410.0000
2023-05-10T02:13:15.596Z,425.3077
2023-05-10T02:14:16.670Z,431.1538
2023-05-10T02:15:17.612Z,432.5385
2023-05-10T02:16:18.665Z,428.3846
2023-05-10T02:17:19.737Z,428.3077
2023-05-10T02:18:20.785Z,438.0000
2023-05-10T02:19:21.774Z,444.8462
2023-05-10T02:20:22.760Z,439.2308
2023-05-10T02:21:23.771Z,418.3846
2023-05-10T02:22:24.828Z,426.6923
2023-05-10T02:23:25.900Z,432.7692
2023-05-10T02:24:26.908Z,435.9231
2023-05-10T02:25:27.896Z,428.0000
2023-05-10T02:26:29.028Z,430.9231
2023-05-10T02:27:30.032Z,434.4615
2023-05-10T02:28:31.035Z,434.3846
2023-05-10T02:29:32.053Z,436.3846
2023-05-10T02:30:33.034Z,426.1538
2023-05-10T02:31:34.115Z,422.5385
2023-05-10T02:32:35.199Z,417.9231
2023-05-10T02:33:36.175Z,427.8462
2023-05-10T02:34:37.192Z,412.9231
2023-05-10T02:35:38.186Z,403.4615
2023-05-10T02:36:39.205Z,414.1538
2023-05-10T02:37:40.234Z,419.9231
2023-05-10T02:38:41.334Z,419.6154
2023-05-10T02:39:42.340Z,422.0000
2023-05-10T02:40:43.322Z,425.0769
2023-05-10T02:41:44.329Z,429.3846
2023-05-10T02:42:45.371Z,431.2308
2023-05-10T02:43:46.477Z,422.8462
2023-05-10T02:44:47.472Z,429.3846
2023-05-10T02:45:48.478Z,423.0000
2023-05-10T02:46:49.473Z,426.6154
2023-05-10T02:47:50.581Z,421.8462
2023-05-10T02:48:51.610Z,427.0000
2023-05-10T02:49:52.617Z,432.0769
2023-05-10T02:50:53.622Z,426.3077
2023-05-10T02:51:54.637Z,421.3077
2023-05-10T02:52:55.655Z,423.0769
2023-05-10T02:53:56.774Z,421.6154
2023-05-10T02:54:57.777Z,425.2308
2023-05-10T02:55:58.774Z,428.0769
2023-05-10T02:56:59.836Z,434.3846
2023-05-10T02:58:00.936Z,441.3077
2023-05-10T02:59:01.931Z,443.8462
2023-05-10T03:00:03.022Z,441.2308
2023-05-10T03:01:03.978Z,445.0000
2023-05-10T03:02:04.953Z,436.0769
2023-05-10T03:03:06.020Z,429.2308
2023-05-10T03:04:07.189Z,419.3846
2023-05-10T03:05:08.172Z,433.9231
2023-05-10T03:06:09.112Z,435.0769
2023-05-10T03:07:10.333Z,433.1538
2023-05-10T03:08:11.214Z,425.4615
2023-05-10T03:09:12.256Z,425.6923
2023-05-10T03:10:13.283Z,422.9231
2023-05-10T03:11:14.266Z,430.7692
2023-05-10T03:12:15.317Z,429.4615
2023-05-10T03:13:16.349Z,431.9231
2023-05-10T03:14:17.412Z,436.6923
2023-05-10T03:15:18.456Z,432.1538
2023-05-10T03:16:19.517Z,432.7692
2023-05-10T03:17:20.471Z,434.2308
2023-05-10T03:18:21.590Z,435.6923
2023-05-10T03:19:22.622Z,420.4615
2023-05-10T03:20:23.584Z,429.8462
2023-05-10T03:21:24.614Z,433.8462
2023-05-10T03:22:25.602Z,432.5385
2023-05-10T03:23:26.629Z,422.6154
2023-05-10T03:24:27.716Z,430.5385
2023-05-10T03:25:28.744Z,428.3077
2023-05-10T03:26:29.721Z,431.0000
2023-05-10T03:27:30.747Z,415.6154
2023-05-10T03:28:31.816Z,417.5385
2023-05-10T03:29:32.857Z,407.4615
2023-05-10T03:30:33.969Z,400.7692
2023-05-10T03:31:34.959Z,402.7692
2023-05-10T03:32:35.965Z,409.0769
2023-05-10T03:33:36.983Z,406.9231
2023-05-10T03:34:38.020Z,401.0000
2023-05-10T03:35:39.095Z,400.6154
2023-05-10T03:36:40.123Z,408.4615
2023-05-10T03:37:41.084Z,417.1538
2023-05-10T03:38:42.096Z,428.6923
2023-05-10T03:39:43.198Z,437.4615
2023-05-10T03:40:44.232Z,441.7692
2023-05-10T03:41:45.190Z,440.7692
2023-05-10T03:42:46.298Z,431.0000
2023-05-10T03:43:47.241Z,441.8462
2023-05-10T03:44:48.376Z,441.5385
2023-05-10T03:45:49.341Z,437.1538
2023-05-10T03:46:50.419Z,421.3077
2023-05-10T03:47:51.414Z,425.0000
2023-05-10T03:48:52.399Z,433.0769
2023-05-10T03:49:53.511Z,436.0769
2023-05-10T03:50:54.530Z,446.0000
2023-05-10T03:51:55.515Z,450.2308
2023-05-10T03:52:56.537Z,451.1538
2023-05-10T03:53:57.557Z,441.4615
2023-05-10T03:54:58.628Z,434.2308
2023-05-10T03:55:59.655Z,438.6154
2023-05-10T03:57:00.654Z,440.2308
2023-05-10T03:58:01.708Z,443.8462
2023-05-10T03:59:02.759Z,437.9231
2023-05-10T04:00:03.803Z,442.4615
2023-05-10T04:01:04.816Z,441.6923
2023-05-10T04:02:05.900Z,442.6154
2023-05-10T04:03:06.942Z,447.0769
2023-05-10T04:04:07.907Z,442.7692
2023-05-10T04:05:08.980Z,449.1538
2023-05-10T04:06:09.994Z,454.4615
2023-05-10T04:07:10.958Z,452.0769
2023-05-10T04:08:11.998Z,445.0769
2023-05-10T04:09:13.088Z,444.1538
2023-05-10T04:10:14.372Z,446.6154
2023-05-10T04:11:15.212Z,441.3077
2023-05-10T04:12:16.133Z,439.5385
2023-05-10T04:13:17.177Z,434.3077
2023-05-10T04:14:18.194Z,416.4615
2023-05-10T04:15:19.280Z,418.3077
2023-05-10T04:16:20.309Z,432.3846
2023-05-10T04:17:21.354Z,440.3077
2023-05-10T04:18:22.297Z,437.3077
2023-05-10T04:19:23.420Z,432.2308
2023-05-10T04:20:24.481Z,436.0000
2023-05-10T04:21:25.541Z,423.0769
2023-05-10T04:22:26.509Z,422.8462
2023-05-10T04:23:27.459Z,431.0769
2023-05-10T04:24:28.510Z,430.0769
2023-05-10T04:25:29.536Z,430.6154
2023-05-10T04:26:30.647Z,429.1538
2023-05-10T04:27:31.637Z,434.6154
2023-05-10T04:28:32.666Z,415.0769
2023-05-10T04:29:33.689Z,407.5385
2023-05-10T04:30:34.778Z,411.5385
2023-05-10T04:31:35.842Z,412.3077
2023-05-10T04:32:36.919Z,425.5385
2023-05-10T04:33:37.795Z,432.7692
2023-05-10T04:34:38.845Z,426.3846
2023-05-10T04:35:39.890Z,420.1538
2023-05-10T04:36:40.944Z,426.8462
2023-05-10T04:37:42.021Z,435.0000
2023-05-10T04:38:42.936Z,418.3077
2023-05-10T04:39:43.996Z,402.7692
2023-05-10T04:40:45.021Z,417.3846
2023-05-10T04:41:46.167Z,400.0000
2023-05-10T04:42:47.184Z,403.1538
2023-05-10T04:43:48.189Z,405.7692
2023-05-10T04:44:49.223Z,400.0000
2023-05-10T04:45:50.201Z,400.0000
2023-05-10T04:46:51.292Z,400.0000
2023-05-10T04:47:52.303Z,400.0000
2023-05-10T04:48:53.257Z,400.0000
2023-05-10T04:49:54.369Z,400.0000
2023-05-10T04:50:55.398Z,400.0000
2023-05-10T04:51:56.500Z,400.0000
2023-05-10T04:52:57.416Z,400.0000
2023-05-10T04:54:06.123Z,407.7692
2023-05-10T04:54:59.612Z,403.0000
2023-05-10T04:56:00.515Z,400.6923
2023-05-10T04:57:01.593Z,405.9231
2023-05-10T04:58:02.648Z,416.6154
2023-05-10T04:59:03.635Z,402.3846
2023-05-10T05:00:04.644Z,400.6923
2023-05-10T05:01:05.679Z,401.0769
2023-05-10T05:02:06.831Z,402.0000
2023-05-10T05:03:07.943Z,413.0000
2023-05-10T05:04:08.782Z,410.1538
2023-05-10T05:05:09.794Z,407.3846
2023-05-10T05:06:10.911Z,400.0000
2023-05-10T05:07:11.915Z,400.0000
2023-05-10T05:08:12.968Z,401.5385
2023-05-10T05:09:13.980Z,402.4615
2023-05-10T05:10:15.086Z,412.0000
2023-05-10T05:11:15.998Z,410.5385
2023-05-10T05:12:17.094Z,400.3846
2023-05-10T05:13:18.194Z,400.0000
2023-05-10T05:14:19.095Z,400.3846
2023-05-10T05:15:20.166Z,400.9231
2023-05-10T05:16:21.355Z,413.6154
2023-05-10T05:17:22.357Z,420.0000
2023-05-10T05:18:23.300Z,440.4615
2023-05-10T05:19:24.275Z,405.0769
2023-05-10T05:20:25.391Z,400.0000
2023-05-10T05:21:26.445Z,400.0000
2023-05-10T05:22:27.505Z,405.7692
2023-05-10T05:23:28.567Z,412.3846
2023-05-10T05:24:29.563Z,417.4615
2023-05-10T05:25:30.565Z,502.2308
2023-05-10T05:26:31.580Z,453.5385
2023-05-10T05:27:32.687Z,425.0000
2023-05-10T05:28:33.695Z,433.3077
2023-05-10T05:29:34.745Z,442.7692
2023-05-10T05:30:35.679Z,501.5385
2023-05-10T05:31:36.833Z,496.6154
2023-05-10T05:32:37.931Z,496.7692
2023-05-10T05:33:38.865Z,451.0769
2023-05-10T05:34:39.896Z,451.6154
2023-05-10T05:35:40.914Z,449.7692
2023-05-10T05:36:41.960Z,439.2308
2023-05-10T05:37:43.021Z,457.1538
2023-05-10T05:38:44.027Z,452.3077
2023-05-10T05:39:45.049Z,448.8462
2023-05-10T05:40:46.032Z,447.7692
2023-05-10T05:41:47.143Z,445.6923
2023-05-10T05:42:48.123Z,454.3077
2023-05-10T05:43:49.191Z,446.2308
2023-05-10T05:44:50.136Z,441.6154
2023-05-10T05:45:51.283Z,431.0769
2023-05-10T05:46:52.319Z,426.8462
2023-05-10T05:47:53.404Z,443.6154
2023-05-10T05:48:54.294Z,428.5385
2023-05-10T05:49:55.326Z,424.6923
2023-05-10T05:50:56.346Z,432.7692
2023-05-10T05:51:57.411Z,416.6154
2023-05-10T05:52:58.410Z,415.7692
2023-05-10T05:53:59.540Z,421.3846
2023-05-10T05:55:00.558Z,407.0000
2023-05-10T05:56:01.504Z,412.3846
2023-05-10T05:57:02.581Z,415.7692
2023-05-10T05:58:03.579Z,414.6154
2023-05-10T05:59:04.557Z,408.1538
2023-05-10T06:00:05.704Z,414.3077
2023-05-10T06:01:06.659Z,417.4615
2023-05-10T06:02:07.751Z,411.6154
2023-05-10T06:03:08.838Z,417.8462
2023-05-10T06:04:09.792Z,418.4615
2023-05-10T06:05:10.845Z,419.6923
2023-05-10T06:06:11.835Z,410.5385
2023-05-10T06:07:12.893Z,400.0000
2023-05-10T06:08:13.906Z,400.0000
2023-05-10T06:09:14.874Z,402.9231
2023-05-10T06:10:15.955Z,402.4615
2023-05-10T06:11:17.045Z,406.1538
2023-05-10T06:12:18.049Z,411.6923
2023-05-10T06:13:19.093Z,402.3077
2023-05-10T06:14:20.036Z,403.9231
2023-05-10T06:15:21.151Z,409.9231
2023-05-10T06:16:22.154Z,426.6923
2023-05-10T06:17:23.173Z,409.7692
2023-05-10T06:18:24.197Z,409.0769
2023-05-10T06:19:25.259Z,402.8462
2023-05-10T06:20:26.272Z,406.8462
2023-05-10T06:21:27.272Z,410.7692
2023-05-10T06:22:28.418Z,417.3846
2023-05-10T06:23:29.335Z,400.0000
2023-05-10T06:24:30.436Z,400.0000
2023-05-10T06:25:31.388Z,400.0000
2023-05-10T06:26:32.482Z,400.0000
2023-05-10T06:27:33.541Z,400.0000
2023-05-10T06:28:34.545Z,400.0000
2023-05-10T06:29:35.568Z,405.3846
2023-05-10T06:30:36.611Z,402.3846
2023-05-10T06:31:37.658Z,402.6923
2023-05-10T06:32:38.705Z,406.8462
2023-05-10T06:33:39.726Z,400.4615
2023-05-10T06:34:40.734Z,400.0000
2023-05-10T06:35:41.800Z,400.0000
2023-05-10T06:36:42.755Z,400.0000
2023-05-10T06:37:43.835Z,400.0000
2023-05-10T06:38:44.910Z,400.0000
2023-05-10T06:39:45.924Z,400.0000
2023-05-10T06:40:46.899Z,400.0000
2023-05-10T06:41:47.988Z,400.0000
2023-05-10T06:42:49.005Z,400.0000
2023-05-10T06:43:50.077Z,400.0000
2023-05-10T06:44:51.059Z,400.0000
2023-05-10T06:45:52.159Z,400.0000
2023-05-10T06:46:53.137Z,400.0000
2023-05-10T06:47:54.210Z,400.0000
2023-05-10T06:48:55.204Z,400.0000
2023-05-10T06:49:56.283Z,400.0000
2023-05-10T06:50:57.251Z,400.0000
2023-05-10T06:51:58.325Z,400.0000
2023-05-10T06:52:59.325Z,400.0000
2023-05-10T06:54:00.454Z,400.0000
2023-05-10T06:55:01.440Z,400.0000
2023-05-10T06:56:02.441Z,400.0000
2023-05-10T06:57:04.151Z,400.0000
2023-05-10T06:58:04.585Z,400.0000
2023-05-10T06:59:05.642Z,400.0000
2023-05-10T07:00:06.662Z,400.0000
2023-05-10T07:01:07.818Z,400.0000
2023-05-10T07:02:08.670Z,400.0000
2023-05-10T07:03:09.708Z,400.0000
2023-05-10T07:04:10.746Z,400.0000
2023-05-10T07:05:11.796Z,400.0000
2023-05-10T07:06:21.702Z,400.0000
2023-05-10T07:07:13.844Z,400.0000
2023-05-10T07:08:14.866Z,400.0000
2023-05-10T07:09:15.952Z,400.0000
2023-05-10T07:10:16.956Z,400.0000
2023-05-10T07:11:18.019Z,400.0000
2023-05-10T07:12:19.080Z,400.0000
2023-05-10T07:13:20.131Z,400.0000
2023-05-10T07:14:21.012Z,400.0000
2023-05-10T07:15:22.176Z,400.0000
2023-05-10T07:16:23.293Z,400.0000
2023-05-10T07:17:24.314Z,400.0000
2023-05-10T07:18:25.210Z,400.0000
2023-05-10T07:19:26.322Z,400.0000
2023-05-10T07:20:27.293Z,400.0000
2023-05-10T07:21:28.350Z,400.0000
2023-05-10T07:22:29.293Z,400.0000
2023-05-10T07:23:30.375Z,400.0000
2023-05-10T07:24:31.381Z,400.0000
2023-05-10T07:25:32.452Z,400.0000
2023-05-10T07:26:33.556Z,400.0000
2023-05-10T07:27:34.521Z,400.0000
2023-05-10T07:28:35.620Z,400.0000
2023-05-10T07:29:36.623Z,400.0000
2023-05-10T07:30:37.702Z,400.0000
2023-05-10T07:31:38.775Z,400.0000
2023-05-10T07:32:39.757Z,400.0000
2023-05-10T07:33:40.736Z,400.0000
2023-05-10T07:34:41.733Z,400.0000
2023-05-10T07:35:42.841Z,400.0000
2023-05-10T07:36:43.889Z,400.0000
2023-05-10T07:37:44.879Z,400.0000
2023-05-10T07:38:45.855Z,475.0000
2023-05-10T07:39:46.939Z,454.3846
2023-05-10T07:40:47.999Z,403.9231
2023-05-10T07:41:49.048Z,422.1538
2023-05-10T07:42:50.003Z,400.0000
2023-05-10T07:43:51.078Z,400.0000
2023-05-10T07:44:52.107Z,400.0000
2023-05-10T07:45:56.030Z,400.0000
2023-05-10T07:46:54.249Z,400.0000
2023-05-10T07:47:55.304Z,400.0000
2023-05-10T07:48:56.367Z,400.0000
2023-05-10T07:49:57.276Z,400.0000
2023-05-10T07:50:58.351Z,400.0000
2023-05-10T07:51:59.398Z,400.0000
2023-05-10T07:53:00.366Z,400.0000
2023-05-10T07:54:01.418Z,408.5385
2023-05-10T07:55:02.479Z,404.8462
2023-05-10T07:56:03.595Z,400.0000
2023-05-10T07:57:04.553Z,400.6154
2023-05-10T07:58:05.634Z,403.0000
2023-05-10T07:59:06.601Z,400.0000
2023-05-10T08:00:07.660Z,402.9231
2023-05-10T08:01:08.716Z,400.0000
2023-05-10T08:02:09.753Z,400.0000
2023-05-10T08:03:10.955Z,400.0000
2023-05-10T08:04:11.757Z,400.0000
2023-05-10T08:05:12.770Z,400.0000
2023-05-10T08:06:13.860Z,400.0000
2023-05-10T08:07:14.936Z,668.3846
2023-05-10T08:08:15.976Z,620.6154
2023-05-10T08:09:16.961Z,442.2308
2023-05-10T08:10:17.966Z,400.0000
2023-05-10T08:11:19.060Z,400.0000
2023-05-10T08:12:20.076Z,400.0000
2023-05-10T08:13:21.125Z,400.0000
2023-05-10T08:14:22.119Z,400.0000
2023-05-10T08:15:23.134Z,400.0000
2023-05-10T08:16:24.332Z,400.0000
2023-05-10T08:17:25.314Z,400.0000
2023-05-10T08:18:26.347Z,400.0000
2023-05-10T08:19:27.250Z,400.0000
2023-05-10T08:20:28.367Z,400.0000
2023-05-10T08:21:29.415Z,400.0000
2023-05-10T08:22:30.479Z,400.0000
2023-05-10T08:23:31.417Z,400.0000
2023-05-10T08:24:32.476Z,412.9231
2023-05-10T08:25:33.519Z,400.0000
2023-05-10T08:26:34.658Z,400.0000
2023-05-10T08:27:35.564Z,402.0000
2023-05-10T08:28:36.596Z,411.4615
2023-05-10T08:29:48.878Z,473.2308
2023-05-10T08:30:38.644Z,444.3846
2023-05-10T08:31:39.853Z,400.0000
2023-05-10T08:32:40.820Z,443.5385
2023-05-10T08:33:43.067Z,403.8462
2023-05-10T08:34:42.822Z,400.0000
2023-05-10T08:35:43.820Z,400.0000
2023-05-10T08:36:44.907Z,400.0000
2023-05-10T08:37:45.955Z,400.0000
2023-05-10T08:38:46.956Z,400.0000
2023-05-10T08:39:47.965Z,400.0000
2023-05-10T08:40:49.080Z,400.0000
2023-05-10T08:41:50.067Z,400.0000
2023-05-10T08:42:51.152Z,400.0000
2023-05-10T08:43:52.101Z,798.7692
2023-05-10T08:44:53.159Z,1518.2307
2023-05-10T08:45:54.170Z,1347.6923
2023-05-10T08:46:55.446Z,659.4615
2023-05-10T08:47:56.351Z,438.3846
2023-05-10T08:48:57.323Z,400.0000
2023-05-10T08:49:58.307Z,400.0000
2023-05-10T08:50:59.367Z,400.0000
2023-05-10T08:52:00.429Z,400.0000
2023-05-10T08:53:01.479Z,400.0000
2023-05-10T08:54:02.497Z,400.0000
2023-05-10T08:55:03.479Z,400.0000
2023-05-10T08:56:04.523Z,400.0000
2023-05-10T08:57:05.677Z,400.0000
2023-05-10T08:58:06.650Z,400.0000
2023-05-10T08:59:07.611Z,400.0000
2023-05-10T09:00:08.677Z,800.9231
2023-05-10T09:01:09.814Z,970.5385
2023-05-10T09:02:10.778Z,1309.4615
2023-05-10T09:03:11.791Z,553.0000
2023-05-10T09:04:12.849Z,400.0000
2023-05-10T09:05:13.915Z,400.0000
2023-05-10T09:06:14.825Z,400.0000
2023-05-10T09:07:15.994Z,400.0000
2023-05-10T09:08:16.998Z,400.0000
2023-05-10T09:09:17.935Z,400.0000
2023-05-10T09:10:19.045Z,400.0000
2023-05-10T09:11:20.041Z,400.0000
2023-05-10T09:12:21.056Z,400.0000
2023-05-10T09:13:22.135Z,400.0000
2023-05-10T09:14:23.143Z,400.0000
2023-05-10T09:15:24.215Z,400.0000
2023-05-10T09:16:25.193Z,400.0000
2023-05-10T09:17:26.481Z,400.0000
2023-05-10T09:18:28.113Z,400.0000
2023-05-10T09:19:28.354Z,400.0000
2023-05-10T09:20:29.527Z,400.0000
2023-05-10T09:21:30.453Z,400.0000
2023-05-10T09:22:31.499Z,400.0000
2023-05-10T09:23:32.532Z,400.0000
2023-05-10T09:24:33.546Z,400.0000
2023-05-10T09:25:34.559Z,400.0000
2023-05-10T09:26:35.601Z,400.0000
2023-05-10T09:27:36.726Z,400.0000
2023-05-10T09:28:37.710Z,400.0000
2023-05-10T09:29:38.794Z,400.0000
2023-05-10T09:30:39.760Z,400.0000
2023-05-10T09:31:40.766Z,400.0000
2023-05-10T09:32:41.906Z,400.0000
2023-05-10T09:33:42.870Z,400.0000
2023-05-10T09:34:43.869Z,400.0000
2023-05-10T09:35:44.925Z,400.0000
2023-05-10T09:36:45.915Z,400.0000
2023-05-10T09:37:46.997Z,400.0000
2023-05-10T09:38:48.127Z,400.0000
2023-05-10T09:39:49.098Z,400.0000
2023-05-10T09:40:50.067Z,400.0000
2023-05-10T09:41:51.133Z,400.0000
2023-05-10T09:42:52.222Z,400.0000
2023-05-10T09:43:53.241Z,400.0000
2023-05-10T09:44:54.252Z,400.0000
2023-05-10T09:45:55.253Z,400.0000
2023-05-10T09:46:56.353Z,400.0000
2023-05-10T09:47:57.449Z,400.0000
2023-05-10T09:48:58.466Z,400.0000
2023-05-10T09:49:59.389Z,400.0000
2023-05-10T09:51:00.446Z,400.0000
2023-05-10T09:52:01.469Z,400.0000
2023-05-10T09:53:02.513Z,400.0000
2023-05-10T09:54:03.561Z,400.0000
2023-05-10T09:55:04.551Z,400.0000
2023-05-10T09:56:05.621Z,400.0000
2023-05-10T09:57:06.580Z,400.0000
2023-05-10T09:58:07.778Z,400.0000
2023-05-10T09:59:08.692Z,400.0000
2023-05-10T10:00:09.757Z,400.0000
2023-05-10T10:01:10.783Z,400.0000
2023-05-10T10:02:11.738Z,400.0000
2023-05-10T10:03:12.894Z,400.0000
2023-05-10T10:04:13.934Z,400.0000
2023-05-10T10:05:15.125Z,400.0000
2023-05-10T10:06:29.120Z,400.0000
2023-05-10T10:07:16.923Z,400.0000
2023-05-10T10:08:18.048Z,400.0000
2023-05-10T10:09:19.002Z,400.0000
2023-05-10T10:10:20.093Z,400.0000
2023-05-10T10:11:21.072Z,400.0000
2023-05-10T10:12:22.083Z,400.0000
2023-05-10T10:13:23.175Z,400.0000
2023-05-10T10:14:24.213Z,400.0000
2023-05-10T10:15:25.222Z,400.0000
2023-05-10T10:16:26.296Z,400.0000
2023-05-10T10:17:27.404Z,400.0000
2023-05-10T10:18:28.450Z,400.0000
2023-05-10T10:19:29.376Z,400.0000
2023-05-10T10:20:30.297Z,400.0000
2023-05-10T10:21:31.382Z,400.0000
2023-05-10T10:22:32.470Z,400.0000
2023-05-10T10:23:33.505Z,400.0000
2023-05-10T10:24:34.504Z,400.0000
2023-05-10T10:25:35.465Z,400.0000
2023-05-10T10:26:36.593Z,400.0000
2023-05-10T10:27:37.536Z,400.0000
2023-05-10T10:28:38.649Z,400.0000
2023-05-10T10:29:39.655Z,400.0000
2023-05-10T10:30:40.679Z,400.0000
2023-05-10T10:31:41.737Z,401.0769
2023-05-10T10:32:42.834Z,400.0000
2023-05-10T10:33:44.859Z,400.0000
2023-05-10T10:34:44.851Z,400.0000
2023-05-10T10:35:45.884Z,400.0000
2023-05-10T10:36:46.898Z,400.0000
2023-05-10T10:37:47.970Z,400.0000
2023-05-10T10:38:49.044Z,400.0000
2023-05-10T10:39:49.974Z,400.0000
2023-05-10T10:40:51.001Z,400.0000
2023-05-10T10:41:52.072Z,400.0000
2023-05-10T10:42:53.164Z,400.0000
2023-05-10T10:43:54.138Z,400.0000
2023-05-10T10:44:55.223Z,400.0000
2023-05-10T10:45:56.198Z,400.0000
2023-05-10T10:46:57.207Z,400.0000
2023-05-10T10:47:58.222Z,400.0000
2023-05-10T10:48:59.319Z,400.0000
2023-05-10T10:50:00.380Z,400.0000
2023-05-10T10:51:01.318Z,403.0000
2023-05-10T10:52:02.360Z,400.0000
2023-05-10T10:53:03.431Z,404.8462
2023-05-10T10:54:04.512Z,400.0000
2023-05-10T10:55:05.559Z,400.0000
2023-05-10T10:56:06.497Z,400.0000
2023-05-10T10:57:07.614Z,400.0000
2023-05-10T10:58:08.551Z,400.0000
2023-05-10T10:59:09.661Z,400.0000
2023-05-10T11:00:10.669Z,400.0000
2023-05-10T11:01:11.798Z,400.0000
2023-05-10T11:02:12.674Z,400.0000
2023-05-10T11:03:13.857Z,400.0000
2023-05-10T11:04:14.868Z,400.0000
2023-05-10T11:05:16.106Z,400.0000
2023-05-10T11:06:16.884Z,400.0000
2023-05-10T11:07:17.889Z,400.0000
2023-05-10T11:08:18.929Z,400.0000
2023-05-10T11:09:20.006Z,400.0000
2023-05-10T11:10:21.029Z,400.0000
2023-05-10T11:11:21.995Z,400.0000
2023-05-10T11:12:23.053Z,400.0000
2023-05-10T11:13:24.072Z,400.0000
2023-05-10T11:14:25.156Z,400.0000
2023-05-10T11:15:26.196Z,400.0000
2023-05-10T11:16:27.259Z,400.0000
2023-05-10T11:17:28.228Z,400.0000
2023-05-10T11:18:29.305Z,400.0000
2023-05-10T11:19:30.212Z,400.0000
2023-05-10T11:20:31.275Z,400.0000
2023-05-10T11:21:32.412Z,400.0000
2023-05-10T11:22:33.279Z,400.0000
2023-05-10T11:23:34.311Z,400.0000
2023-05-10T11:24:35.402Z,400.0000
2023-05-10T11:25:36.387Z,400.0000
2023-05-10T11:26:37.419Z,400.0000
2023-05-10T11:27:38.685Z,400.0000
2023-05-10T11:28:39.479Z,400.0000
2023-05-10T11:29:40.563Z,400.0000
2023-05-10T11:30:41.671Z,411.2308
2023-05-10T11:31:42.561Z,581.2308
2023-05-10T11:32:43.647Z,400.0000
2023-05-10T11:33:44.624Z,400.0000
2023-05-10T11:34:45.711Z,400.0000
2023-05-10T11:35:46.723Z,400.0000
2023-05-10T11:36:47.778Z,400.0000
2023-05-10T11:37:48.817Z,400.0000
2023-05-10T11:38:49.884Z,400.0000
2023-05-10T11:39:50.860Z,400.0000
2023-05-10T11:40:51.920Z,400.0000
2023-05-10T11:41:52.929Z,400.0000
2023-05-10T11:42:53.932Z,400.0000
2023-05-10T11:43:54.984Z,400.0000
2023-05-10T11:44:56.055Z,400.0000
2023-05-10T11:45:57.038Z,400.0769
2023-05-10T11:46:58.139Z,400.0000
2023-05-10T11:47:59.139Z,400.0000
2023-05-10T11:49:00.120Z,400.0000
2023-05-10T11:50:01.173Z,400.0000
2023-05-10T11:51:02.209Z,400.0000
2023-05-10T11:52:03.290Z,400.0000
2023-05-10T11:53:04.286Z,400.0000
2023-05-10T11:54:05.561Z,400.0000
2023-05-10T11:55:06.362Z,400.0000
2023-05-10T11:56:07.397Z,400.0000